sensor_id;sensor_type;location;lat;lon;timestamp;P1;durP1;ratioP1;P2;durP2;ratioP2
15466;SDS011;7834;49.452;11.056;2024-01-16T00:02:14;9.00;;;5.40;;
15466;SDS011;7834;49.452;11.056;2024-01-16T00:04:39;8.03;;;5.53;;
15466;SDS011;7834;49.452;11.056;2024-01-16T00:07:06;9.00;;;5.40;;
15466;SDS011;7834;49.452;11.056;2024-01-16T00:09:34;7.63;;;4.93;;
15466;SDS011;7834;49.452;11.056;2024-01-16T00:12:01;7.90;;;5.32;;
15466;SDS011;7834;49.452;11.056;2024-01-16T00:14:26;8.67;;;5.27;;
15466;SDS011;7834;49.452;11.056;2024-01-16T00:16:53;10.50;;;5.88;;
15466;SDS011;7834;49.452;11.056;2024-01-16T00:19:18;8.37;;;5.10;;
15466;SDS011;7834;49.452;11.056;2024-01-16T00:21:46;8.27;;;4.40;;
15466;SDS011;7834;49.452;11.056;2024-01-16T00:24:15;7.03;;;4.57;;
15466;SDS011;7834;49.452;11.056;2024-01-16T00:26:41;8.38;;;4.72;;
15466;SDS011;7834;49.452;11.056;2024-01-16T00:29:06;7.18;;;4.57;;
15466;SDS011;7834;49.452;11.056;2024-01-16T00:31:32;7.47;;;4.70;;
15466;SDS011;7834;49.452;11.056;2024-01-16T00:33:58;8.47;;;5.00;;
15466;SDS011;7834;49.452;11.056;2024-01-16T00:36:25;6.97;;;4.80;;
15466;SDS011;7834;49.452;11.056;2024-01-16T00:38:51;7.27;;;4.60;;
15466;SDS011;7834;49.452;11.056;2024-01-16T00:41:16;9.53;;;5.20;;
15466;SDS011;7834;49.452;11.056;2024-01-16T00:43:45;8.30;;;5.40;;
15466;SDS011;7834;49.452;11.056;2024-01-16T00:46:11;8.75;;;6.07;;
15466;SDS011;7834;49.452;11.056;2024-01-16T00:48:36;7.45;;;4.93;;
15466;SDS011;7834;49.452;11.056;2024-01-16T00:51:02;11.32;;;6.07;;
15466;SDS011;7834;49.452;11.056;2024-01-16T00:53:27;7.67;;;4.93;;
15466;SDS011;7834;49.452;11.056;2024-01-16T00:55:53;13.38;;;7.35;;
15466;SDS011;7834;49.452;11.056;2024-01-16T00:58:19;8.45;;;5.57;;
15466;SDS011;7834;49.452;11.056;2024-01-16T01:00:45;9.07;;;6.43;;
15466;SDS011;7834;49.452;11.056;2024-01-16T01:03:11;12.13;;;7.43;;
15466;SDS011;7834;49.452;11.056;2024-01-16T01:05:37;10.65;;;5.93;;
15466;SDS011;7834;49.452;11.056;2024-01-16T01:08:02;10.87;;;6.47;;
15466;SDS011;7834;49.452;11.056;2024-01-16T01:10:28;13.82;;;6.60;;
15466;SDS011;7834;49.452;11.056;2024-01-16T01:12:53;10.73;;;6.23;;
15466;SDS011;7834;49.452;11.056;2024-01-16T01:15:21;9.25;;;6.10;;
15466;SDS011;7834;49.452;11.056;2024-01-16T01:17:50;10.70;;;7.20;;
15466;SDS011;7834;49.452;11.056;2024-01-16T01:20:16;11.88;;;6.75;;
15466;SDS011;7834;49.452;11.056;2024-01-16T01:22:43;12.25;;;6.82;;
15466;SDS011;7834;49.452;11.056;2024-01-16T01:25:09;10.05;;;6.47;;
15466;SDS011;7834;49.452;11.056;2024-01-16T01:27:36;10.40;;;6.57;;
15466;SDS011;7834;49.452;11.056;2024-01-16T01:30:01;10.30;;;7.13;;
15466;SDS011;7834;49.452;11.056;2024-01-16T01:32:27;10.73;;;6.53;;
15466;SDS011;7834;49.452;11.056;2024-01-16T01:34:53;9.57;;;6.20;;
15466;SDS011;7834;49.452;11.056;2024-01-16T01:37:18;8.45;;;6.10;;
15466;SDS011;7834;49.452;11.056;2024-01-16T01:39:44;8.53;;;6.00;;
15466;SDS011;7834;49.452;11.056;2024-01-16T01:42:10;8.87;;;6.10;;
15466;SDS011;7834;49.452;11.056;2024-01-16T01:44:35;8.27;;;6.28;;
15466;SDS011;7834;49.452;11.056;2024-01-16T01:47:01;9.53;;;6.03;;
15466;SDS011;7834;49.452;11.056;2024-01-16T01:49:26;9.43;;;6.30;;
15466;SDS011;7834;49.452;11.056;2024-01-16T01:51:52;8.73;;;6.50;;
15466;SDS011;7834;49.452;11.056;2024-01-16T01:54:19;10.02;;;6.15;;
15466;SDS011;7834;49.452;11.056;2024-01-16T01:56:46;7.20;;;5.80;;
15466;SDS011;7834;49.452;11.056;2024-01-16T01:59:11;7.80;;;6.00;;
15466;SDS011;7834;49.452;11.056;2024-01-16T02:01:37;9.23;;;5.63;;
15466;SDS011;7834;49.452;11.056;2024-01-16T02:04:03;9.30;;;6.05;;
15466;SDS011;7834;49.452;11.056;2024-01-16T02:06:32;7.95;;;6.00;;
15466;SDS011;7834;49.452;11.056;2024-01-16T02:08:58;8.73;;;6.20;;
15466;SDS011;7834;49.452;11.056;2024-01-16T02:11:24;8.65;;;6.07;;
15466;SDS011;7834;49.452;11.056;2024-01-16T02:13:50;8.40;;;6.30;;
15466;SDS011;7834;49.452;11.056;2024-01-16T02:18:47;7.90;;;5.90;;
15466;SDS011;7834;49.452;11.056;2024-01-16T02:21:15;10.23;;;6.22;;
15466;SDS011;7834;49.452;11.056;2024-01-16T02:23:42;8.43;;;6.30;;
15466;SDS011;7834;49.452;11.056;2024-01-16T02:26:08;9.47;;;6.27;;
15466;SDS011;7834;49.452;11.056;2024-01-16T02:28:36;9.50;;;6.60;;
15466;SDS011;7834;49.452;11.056;2024-01-16T02:31:02;10.37;;;6.70;;
15466;SDS011;7834;49.452;11.056;2024-01-16T02:33:28;11.03;;;7.03;;
15466;SDS011;7834;49.452;11.056;2024-01-16T02:35:53;10.30;;;6.70;;
15466;SDS011;7834;49.452;11.056;2024-01-16T02:38:19;10.13;;;6.60;;
15466;SDS011;7834;49.452;11.056;2024-01-16T02:40:44;11.40;;;7.43;;
15466;SDS011;7834;49.452;11.056;2024-01-16T02:43:10;12.80;;;8.30;;
15466;SDS011;7834;49.452;11.056;2024-01-16T02:45:35;12.40;;;7.40;;
15466;SDS011;7834;49.452;11.056;2024-01-16T02:48:01;9.52;;;7.07;;
15466;SDS011;7834;49.452;11.056;2024-01-16T02:50:28;10.25;;;6.72;;
15466;SDS011;7834;49.452;11.056;2024-01-16T02:52:54;10.17;;;7.40;;
15466;SDS011;7834;49.452;11.056;2024-01-16T02:55:19;8.10;;;6.68;;
15466;SDS011;7834;49.452;11.056;2024-01-16T02:57:45;10.70;;;6.90;;
15466;SDS011;7834;49.452;11.056;2024-01-16T03:00:10;10.87;;;7.10;;
15466;SDS011;7834;49.452;11.056;2024-01-16T03:02:36;8.60;;;6.45;;
15466;SDS011;7834;49.452;11.056;2024-01-16T03:05:02;10.90;;;6.87;;
15466;SDS011;7834;49.452;11.056;2024-01-16T03:07:29;10.35;;;7.18;;
15466;SDS011;7834;49.452;11.056;2024-01-16T03:09:54;10.18;;;6.97;;
15466;SDS011;7834;49.452;11.056;2024-01-16T03:12:20;7.55;;;6.15;;
15466;SDS011;7834;49.452;11.056;2024-01-16T03:14:45;9.20;;;6.23;;
15466;SDS011;7834;49.452;11.056;2024-01-16T03:17:13;8.30;;;6.50;;
15466;SDS011;7834;49.452;11.056;2024-01-16T03:19:39;10.73;;;6.40;;
15466;SDS011;7834;49.452;11.056;2024-01-16T03:22:05;9.73;;;6.80;;
15466;SDS011;7834;49.452;11.056;2024-01-16T03:24:30;9.53;;;6.60;;
15466;SDS011;7834;49.452;11.056;2024-01-16T03:26:56;9.75;;;6.60;;
15466;SDS011;7834;49.452;11.056;2024-01-16T03:29:25;9.70;;;6.57;;
15466;SDS011;7834;49.452;11.056;2024-01-16T03:31:50;10.00;;;6.70;;
15466;SDS011;7834;49.452;11.056;2024-01-16T03:34:16;9.38;;;6.72;;
15466;SDS011;7834;49.452;11.056;2024-01-16T03:36:44;9.17;;;6.60;;
15466;SDS011;7834;49.452;11.056;2024-01-16T03:39:10;11.23;;;6.75;;
15466;SDS011;7834;49.452;11.056;2024-01-16T03:41:35;10.00;;;6.85;;
15466;SDS011;7834;49.452;11.056;2024-01-16T03:44:01;10.00;;;6.57;;
15466;SDS011;7834;49.452;11.056;2024-01-16T03:46:26;11.40;;;7.05;;
15466;SDS011;7834;49.452;11.056;2024-01-16T03:48:54;9.10;;;7.13;;
15466;SDS011;7834;49.452;11.056;2024-01-16T03:51:20;10.27;;;7.07;;
15466;SDS011;7834;49.452;11.056;2024-01-16T03:53:46;8.82;;;7.13;;
15466;SDS011;7834;49.452;11.056;2024-01-16T03:56:11;9.95;;;7.07;;
15466;SDS011;7834;49.452;11.056;2024-01-16T03:58:37;9.43;;;7.03;;
15466;SDS011;7834;49.452;11.056;2024-01-16T04:01:05;12.48;;;7.30;;
15466;SDS011;7834;49.452;11.056;2024-01-16T04:03:30;10.88;;;7.60;;
15466;SDS011;7834;49.452;11.056;2024-01-16T04:05:56;10.23;;;7.63;;
15466;SDS011;7834;49.452;11.056;2024-01-16T04:08:21;9.97;;;7.07;;
15466;SDS011;7834;49.452;11.056;2024-01-16T04:10:47;11.13;;;7.43;;
15466;SDS011;7834;49.452;11.056;2024-01-16T04:13:12;10.53;;;7.33;;
15466;SDS011;7834;49.452;11.056;2024-01-16T04:15:38;10.48;;;7.18;;
15466;SDS011;7834;49.452;11.056;2024-01-16T04:18:04;9.55;;;7.18;;
15466;SDS011;7834;49.452;11.056;2024-01-16T04:20:30;10.02;;;7.28;;
15466;SDS011;7834;49.452;11.056;2024-01-16T04:22:56;10.60;;;7.30;;
15466;SDS011;7834;49.452;11.056;2024-01-16T04:25:21;12.90;;;7.90;;
15466;SDS011;7834;49.452;11.056;2024-01-16T04:27:47;8.25;;;6.80;;
15466;SDS011;7834;49.452;11.056;2024-01-16T04:30:13;9.07;;;7.13;;
15466;SDS011;7834;49.452;11.056;2024-01-16T04:32:38;10.70;;;7.10;;
15466;SDS011;7834;49.452;11.056;2024-01-16T04:35:04;10.43;;;6.95;;
15466;SDS011;7834;49.452;11.056;2024-01-16T04:37:29;10.07;;;6.70;;
15466;SDS011;7834;49.452;11.056;2024-01-16T04:39:55;10.33;;;7.10;;
15466;SDS011;7834;49.452;11.056;2024-01-16T04:42:20;12.00;;;6.85;;
15466;SDS011;7834;49.452;11.056;2024-01-16T04:44:46;11.17;;;7.03;;
15466;SDS011;7834;49.452;11.056;2024-01-16T04:47:12;10.77;;;7.25;;
15466;SDS011;7834;49.452;11.056;2024-01-16T04:49:37;10.03;;;7.23;;
15466;SDS011;7834;49.452;11.056;2024-01-16T04:52:03;10.23;;;7.30;;
15466;SDS011;7834;49.452;11.056;2024-01-16T04:54:28;10.57;;;6.93;;
15466;SDS011;7834;49.452;11.056;2024-01-16T04:56:54;9.67;;;7.07;;
15466;SDS011;7834;49.452;11.056;2024-01-16T04:59:19;9.77;;;7.03;;
15466;SDS011;7834;49.452;11.056;2024-01-16T05:01:45;10.48;;;7.60;;
15466;SDS011;7834;49.452;11.056;2024-01-16T05:04:11;11.90;;;8.17;;
15466;SDS011;7834;49.452;11.056;2024-01-16T05:06:36;12.25;;;7.90;;
15466;SDS011;7834;49.452;11.056;2024-01-16T05:09:02;11.30;;;7.13;;
15466;SDS011;7834;49.452;11.056;2024-01-16T05:11:28;11.40;;;7.50;;
15466;SDS011;7834;49.452;11.056;2024-01-16T05:13:54;10.73;;;7.50;;
15466;SDS011;7834;49.452;11.056;2024-01-16T05:16:26;11.63;;;7.60;;
15466;SDS011;7834;49.452;11.056;2024-01-16T05:18:52;10.87;;;8.43;;
15466;SDS011;7834;49.452;11.056;2024-01-16T05:21:21;12.07;;;8.05;;
15466;SDS011;7834;49.452;11.056;2024-01-16T05:23:49;12.90;;;8.00;;
15466;SDS011;7834;49.452;11.056;2024-01-16T05:26:15;14.40;;;9.00;;
15466;SDS011;7834;49.452;11.056;2024-01-16T05:28:40;15.37;;;9.63;;
15466;SDS011;7834;49.452;11.056;2024-01-16T05:31:06;10.70;;;8.35;;
15466;SDS011;7834;49.452;11.056;2024-01-16T05:33:32;13.45;;;8.85;;
15466;SDS011;7834;49.452;11.056;2024-01-16T05:35:58;11.20;;;7.75;;
15466;SDS011;7834;49.452;11.056;2024-01-16T05:38:23;15.07;;;8.20;;
15466;SDS011;7834;49.452;11.056;2024-01-16T05:40:49;10.93;;;7.68;;
15466;SDS011;7834;49.452;11.056;2024-01-16T05:43:14;11.33;;;7.80;;
15466;SDS011;7834;49.452;11.056;2024-01-16T05:45:40;12.23;;;7.85;;
15466;SDS011;7834;49.452;11.056;2024-01-16T05:48:06;12.27;;;8.10;;
15466;SDS011;7834;49.452;11.056;2024-01-16T05:50:36;11.53;;;8.00;;
15466;SDS011;7834;49.452;11.056;2024-01-16T05:53:02;11.20;;;7.97;;
15466;SDS011;7834;49.452;11.056;2024-01-16T05:55:28;14.45;;;8.90;;
15466;SDS011;7834;49.452;11.056;2024-01-16T05:57:54;11.48;;;8.23;;
15466;SDS011;7834;49.452;11.056;2024-01-16T06:00:19;12.00;;;8.48;;
15466;SDS011;7834;49.452;11.056;2024-01-16T06:02:48;11.93;;;8.25;;
15466;SDS011;7834;49.452;11.056;2024-01-16T06:05:14;14.93;;;8.47;;
15466;SDS011;7834;49.452;11.056;2024-01-16T06:07:39;11.77;;;8.18;;
15466;SDS011;7834;49.452;11.056;2024-01-16T06:10:05;12.20;;;8.32;;
15466;SDS011;7834;49.452;11.056;2024-01-16T06:12:31;12.32;;;8.25;;
15466;SDS011;7834;49.452;11.056;2024-01-16T06:14:57;12.23;;;8.30;;
15466;SDS011;7834;49.452;11.056;2024-01-16T06:17:26;12.85;;;8.35;;
15466;SDS011;7834;49.452;11.056;2024-01-16T06:19:52;10.00;;;7.90;;
15466;SDS011;7834;49.452;11.056;2024-01-16T06:22:17;11.97;;;8.63;;
15466;SDS011;7834;49.452;11.056;2024-01-16T06:24:43;12.10;;;8.50;;
15466;SDS011;7834;49.452;11.056;2024-01-16T06:27:08;10.90;;;7.77;;
15466;SDS011;7834;49.452;11.056;2024-01-16T06:29:34;11.30;;;7.97;;
15466;SDS011;7834;49.452;11.056;2024-01-16T06:32:00;11.93;;;8.07;;
15466;SDS011;7834;49.452;11.056;2024-01-16T06:34:26;10.48;;;7.55;;
15466;SDS011;7834;49.452;11.056;2024-01-16T06:36:52;13.90;;;8.48;;
15466;SDS011;7834;49.452;11.056;2024-01-16T06:39:17;12.93;;;7.82;;
15466;SDS011;7834;49.452;11.056;2024-01-16T06:41:43;10.50;;;7.87;;
15466;SDS011;7834;49.452;11.056;2024-01-16T06:44:08;12.10;;;8.30;;
15466;SDS011;7834;49.452;11.056;2024-01-16T06:46:34;12.80;;;8.27;;
15466;SDS011;7834;49.452;11.056;2024-01-16T06:49:00;11.57;;;8.20;;
15466;SDS011;7834;49.452;11.056;2024-01-16T06:51:25;10.93;;;7.97;;
15466;SDS011;7834;49.452;11.056;2024-01-16T06:53:51;12.77;;;8.47;;
15466;SDS011;7834;49.452;11.056;2024-01-16T06:56:16;11.40;;;8.20;;
15466;SDS011;7834;49.452;11.056;2024-01-16T06:58:42;12.23;;;8.00;;
15466;SDS011;7834;49.452;11.056;2024-01-16T07:01:09;12.40;;;8.40;;
15466;SDS011;7834;49.452;11.056;2024-01-16T07:03:34;12.27;;;8.27;;
15466;SDS011;7834;49.452;11.056;2024-01-16T07:06:00;13.97;;;8.20;;
15466;SDS011;7834;49.452;11.056;2024-01-16T07:08:25;12.70;;;8.90;;
15466;SDS011;7834;49.452;11.056;2024-01-16T07:10:51;14.80;;;8.60;;
15466;SDS011;7834;49.452;11.056;2024-01-16T07:13:17;11.73;;;8.33;;
15466;SDS011;7834;49.452;11.056;2024-01-16T07:15:45;12.40;;;8.80;;
15466;SDS011;7834;49.452;11.056;2024-01-16T07:18:11;13.77;;;8.53;;
15466;SDS011;7834;49.452;11.056;2024-01-16T07:20:36;15.43;;;8.37;;
15466;SDS011;7834;49.452;11.056;2024-01-16T07:23:03;12.18;;;8.30;;
15466;SDS011;7834;49.452;11.056;2024-01-16T07:25:29;14.55;;;8.57;;
15466;SDS011;7834;49.452;11.056;2024-01-16T07:27:54;12.83;;;8.33;;
15466;SDS011;7834;49.452;11.056;2024-01-16T07:30:20;13.60;;;7.90;;
15466;SDS011;7834;49.452;11.056;2024-01-16T07:32:46;12.90;;;8.10;;
15466;SDS011;7834;49.452;11.056;2024-01-16T07:35:11;13.17;;;8.30;;
15466;SDS011;7834;49.452;11.056;2024-01-16T07:37:37;12.05;;;8.30;;
15466;SDS011;7834;49.452;11.056;2024-01-16T07:40:02;11.87;;;8.20;;
15466;SDS011;7834;49.452;11.056;2024-01-16T07:42:31;12.38;;;8.60;;
15466;SDS011;7834;49.452;11.056;2024-01-16T07:45:00;12.55;;;8.07;;
15466;SDS011;7834;49.452;11.056;2024-01-16T07:47:26;10.98;;;7.60;;
15466;SDS011;7834;49.452;11.056;2024-01-16T07:49:51;12.73;;;7.80;;
15466;SDS011;7834;49.452;11.056;2024-01-16T07:52:17;12.67;;;8.13;;
15466;SDS011;7834;49.452;11.056;2024-01-16T07:54:42;14.38;;;8.43;;
15466;SDS011;7834;49.452;11.056;2024-01-16T07:57:08;11.70;;;8.57;;
15466;SDS011;7834;49.452;11.056;2024-01-16T07:59:36;19.80;;;11.13;;
15466;SDS011;7834;49.452;11.056;2024-01-16T08:02:01;13.07;;;8.15;;
15466;SDS011;7834;49.452;11.056;2024-01-16T08:04:28;13.40;;;8.23;;
15466;SDS011;7834;49.452;11.056;2024-01-16T08:06:53;11.68;;;8.02;;
15466;SDS011;7834;49.452;11.056;2024-01-16T08:09:19;11.20;;;7.93;;
15466;SDS011;7834;49.452;11.056;2024-01-16T08:11:45;11.77;;;8.40;;
15466;SDS011;7834;49.452;11.056;2024-01-16T08:14:11;11.97;;;7.77;;
15466;SDS011;7834;49.452;11.056;2024-01-16T08:16:36;12.48;;;8.20;;
15466;SDS011;7834;49.452;11.056;2024-01-16T08:19:02;13.00;;;8.10;;
15466;SDS011;7834;49.452;11.056;2024-01-16T08:21:28;11.27;;;7.93;;
15466;SDS011;7834;49.452;11.056;2024-01-16T08:23:54;13.33;;;8.47;;
15466;SDS011;7834;49.452;11.056;2024-01-16T08:26:20;14.67;;;8.57;;
15466;SDS011;7834;49.452;11.056;2024-01-16T08:28:45;13.73;;;8.07;;
15466;SDS011;7834;49.452;11.056;2024-01-16T08:31:11;13.47;;;8.83;;
15466;SDS011;7834;49.452;11.056;2024-01-16T08:33:36;14.13;;;8.50;;
15466;SDS011;7834;49.452;11.056;2024-01-16T08:36:03;11.95;;;7.85;;
15466;SDS011;7834;49.452;11.056;2024-01-16T08:38:29;12.38;;;7.97;;
15466;SDS011;7834;49.452;11.056;2024-01-16T08:40:55;13.90;;;8.13;;
15466;SDS011;7834;49.452;11.056;2024-01-16T08:43:20;11.32;;;7.22;;
15466;SDS011;7834;49.452;11.056;2024-01-16T08:45:46;11.05;;;7.30;;
15466;SDS011;7834;49.452;11.056;2024-01-16T08:48:13;13.27;;;7.60;;
15466;SDS011;7834;49.452;11.056;2024-01-16T08:50:40;10.93;;;7.60;;
15466;SDS011;7834;49.452;11.056;2024-01-16T08:53:06;13.63;;;7.67;;
15466;SDS011;7834;49.452;11.056;2024-01-16T08:55:32;16.37;;;9.77;;
15466;SDS011;7834;49.452;11.056;2024-01-16T08:57:57;11.85;;;7.90;;
15466;SDS011;7834;49.452;11.056;2024-01-16T09:00:23;10.83;;;7.87;;
15466;SDS011;7834;49.452;11.056;2024-01-16T09:02:48;11.83;;;7.50;;
15466;SDS011;7834;49.452;11.056;2024-01-16T09:05:14;11.38;;;7.38;;
15466;SDS011;7834;49.452;11.056;2024-01-16T09:07:40;12.00;;;7.77;;
15466;SDS011;7834;49.452;11.056;2024-01-16T09:10:06;11.60;;;7.40;;
15466;SDS011;7834;49.452;11.056;2024-01-16T09:12:32;12.90;;;7.17;;
15466;SDS011;7834;49.452;11.056;2024-01-16T09:14:57;11.00;;;7.70;;
15466;SDS011;7834;49.452;11.056;2024-01-16T09:17:24;11.93;;;7.38;;
15466;SDS011;7834;49.452;11.056;2024-01-16T09:19:50;10.95;;;7.60;;
15466;SDS011;7834;49.452;11.056;2024-01-16T09:22:16;12.00;;;7.68;;
15466;SDS011;7834;49.452;11.056;2024-01-16T09:24:43;13.27;;;8.50;;
15466;SDS011;7834;49.452;11.056;2024-01-16T09:27:09;11.17;;;7.77;;
15466;SDS011;7834;49.452;11.056;2024-01-16T09:29:35;13.15;;;7.60;;
15466;SDS011;7834;49.452;11.056;2024-01-16T09:32:01;13.25;;;7.80;;
15466;SDS011;7834;49.452;11.056;2024-01-16T09:34:27;11.50;;;7.83;;
15466;SDS011;7834;49.452;11.056;2024-01-16T09:36:54;13.10;;;8.20;;
15466;SDS011;7834;49.452;11.056;2024-01-16T09:39:19;12.30;;;7.80;;
15466;SDS011;7834;49.452;11.056;2024-01-16T09:41:45;10.70;;;7.50;;
15466;SDS011;7834;49.452;11.056;2024-01-16T09:44:10;12.77;;;7.77;;
15466;SDS011;7834;49.452;11.056;2024-01-16T09:46:39;11.80;;;8.30;;
15466;SDS011;7834;49.452;11.056;2024-01-16T09:49:05;12.30;;;8.00;;
15466;SDS011;7834;49.452;11.056;2024-01-16T09:51:32;12.47;;;8.00;;
15466;SDS011;7834;49.452;11.056;2024-01-16T09:53:57;12.33;;;8.00;;
15466;SDS011;7834;49.452;11.056;2024-01-16T09:56:23;12.20;;;7.75;;
15466;SDS011;7834;49.452;11.056;2024-01-16T09:58:57;12.13;;;8.10;;
15466;SDS011;7834;49.452;11.056;2024-01-16T10:01:24;19.90;;;13.05;;
15466;SDS011;7834;49.452;11.056;2024-01-16T10:03:52;16.50;;;9.40;;
15466;SDS011;7834;49.452;11.056;2024-01-16T10:06:17;11.13;;;7.63;;
15466;SDS011;7834;49.452;11.056;2024-01-16T10:08:44;11.32;;;7.82;;
15466;SDS011;7834;49.452;11.056;2024-01-16T10:11:11;12.13;;;8.10;;
15466;SDS011;7834;49.452;11.056;2024-01-16T10:13:36;12.53;;;8.50;;
15466;SDS011;7834;49.452;11.056;2024-01-16T10:16:02;12.27;;;8.02;;
15466;SDS011;7834;49.452;11.056;2024-01-16T10:18:29;12.57;;;8.20;;
15466;SDS011;7834;49.452;11.056;2024-01-16T10:20:59;10.05;;;7.68;;
15466;SDS011;7834;49.452;11.056;2024-01-16T10:26:04;10.80;;;7.70;;
15466;SDS011;7834;49.452;11.056;2024-01-16T10:28:29;11.48;;;7.63;;
15466;SDS011;7834;49.452;11.056;2024-01-16T10:31:01;10.68;;;7.68;;
15466;SDS011;7834;49.452;11.056;2024-01-16T10:33:26;11.02;;;7.63;;
15466;SDS011;7834;49.452;11.056;2024-01-16T10:36:00;12.03;;;7.73;;
15466;SDS011;7834;49.452;11.056;2024-01-16T10:38:32;10.27;;;7.30;;
15466;SDS011;7834;49.452;11.056;2024-01-16T10:41:05;10.13;;;7.25;;
15466;SDS011;7834;49.452;11.056;2024-01-16T10:43:31;10.32;;;7.35;;
15466;SDS011;7834;49.452;11.056;2024-01-16T10:46:06;12.37;;;8.10;;
15466;SDS011;7834;49.452;11.056;2024-01-16T10:48:32;11.77;;;7.22;;
15466;SDS011;7834;49.452;11.056;2024-01-16T10:50:57;11.30;;;6.80;;
15466;SDS011;7834;49.452;11.056;2024-01-16T10:53:23;10.37;;;6.60;;
15466;SDS011;7834;49.452;11.056;2024-01-16T10:55:51;9.87;;;6.93;;
15466;SDS011;7834;49.452;11.056;2024-01-16T10:58:18;10.47;;;7.00;;
15466;SDS011;7834;49.452;11.056;2024-01-16T11:00:45;10.57;;;7.10;;
15466;SDS011;7834;49.452;11.056;2024-01-16T11:03:29;10.60;;;7.10;;
15466;SDS011;7834;49.452;11.056;2024-01-16T11:05:57;11.38;;;6.93;;
15466;SDS011;7834;49.452;11.056;2024-01-16T11:08:23;9.07;;;6.75;;
15466;SDS011;7834;49.452;11.056;2024-01-16T11:10:54;10.25;;;6.68;;
15466;SDS011;7834;49.452;11.056;2024-01-16T11:13:20;10.60;;;6.93;;
15466;SDS011;7834;49.452;11.056;2024-01-16T11:15:47;11.18;;;7.03;;
15466;SDS011;7834;49.452;11.056;2024-01-16T11:18:14;8.85;;;5.88;;
15466;SDS011;7834;49.452;11.056;2024-01-16T11:20:39;10.00;;;6.22;;
15466;SDS011;7834;49.452;11.056;2024-01-16T11:23:09;9.97;;;6.10;;
15466;SDS011;7834;49.452;11.056;2024-01-16T11:25:34;9.75;;;6.38;;
15466;SDS011;7834;49.452;11.056;2024-01-16T11:28:07;10.40;;;6.60;;
15466;SDS011;7834;49.452;11.056;2024-01-16T11:30:33;10.13;;;6.38;;
15466;SDS011;7834;49.452;11.056;2024-01-16T11:32:58;10.45;;;6.70;;
15466;SDS011;7834;49.452;11.056;2024-01-16T11:35:36;10.63;;;6.30;;
15466;SDS011;7834;49.452;11.056;2024-01-16T11:40:41;8.97;;;6.00;;
15466;SDS011;7834;49.452;11.056;2024-01-16T11:45:51;8.77;;;5.67;;
15466;SDS011;7834;49.452;11.056;2024-01-16T11:48:17;8.23;;;5.67;;
15466;SDS011;7834;49.452;11.056;2024-01-16T11:50:43;9.10;;;5.93;;
15466;SDS011;7834;49.452;11.056;2024-01-16T11:53:09;10.25;;;5.82;;
15466;SDS011;7834;49.452;11.056;2024-01-16T11:55:35;9.60;;;5.70;;
15466;SDS011;7834;49.452;11.056;2024-01-16T11:58:18;14.57;;;8.50;;
15466;SDS011;7834;49.452;11.056;2024-01-16T12:00:47;9.60;;;5.90;;
15466;SDS011;7834;49.452;11.056;2024-01-16T12:03:16;9.60;;;5.93;;
15466;SDS011;7834;49.452;11.056;2024-01-16T12:05:43;8.18;;;6.13;;
15466;SDS011;7834;49.452;11.056;2024-01-16T12:08:09;9.30;;;5.23;;
15466;SDS011;7834;49.452;11.056;2024-01-16T12:10:37;9.45;;;5.68;;
15466;SDS011;7834;49.452;11.056;2024-01-16T12:13:11;9.17;;;5.67;;
15466;SDS011;7834;49.452;11.056;2024-01-16T12:15:37;8.93;;;5.60;;
15466;SDS011;7834;49.452;11.056;2024-01-16T12:18:03;7.85;;;5.30;;
15466;SDS011;7834;49.452;11.056;2024-01-16T12:20:32;7.90;;;5.25;;
15466;SDS011;7834;49.452;11.056;2024-01-16T12:25:24;11.68;;;6.60;;
15466;SDS011;7834;49.452;11.056;2024-01-16T12:27:56;10.60;;;5.85;;
15466;SDS011;7834;49.452;11.056;2024-01-16T12:30:32;9.35;;;5.32;;
15466;SDS011;7834;49.452;11.056;2024-01-16T12:33:07;7.32;;;4.80;;
15466;SDS011;7834;49.452;11.056;2024-01-16T12:35:36;8.93;;;5.25;;
15466;SDS011;7834;49.452;11.056;2024-01-16T12:38:03;7.55;;;5.38;;
15466;SDS011;7834;49.452;11.056;2024-01-16T12:40:31;7.72;;;5.30;;
15466;SDS011;7834;49.452;11.056;2024-01-16T12:42:57;8.73;;;5.50;;
15466;SDS011;7834;49.452;11.056;2024-01-16T12:45:23;8.60;;;5.50;;
15466;SDS011;7834;49.452;11.056;2024-01-16T12:47:52;7.13;;;5.18;;
15466;SDS011;7834;49.452;11.056;2024-01-16T12:50:23;8.30;;;5.40;;
15466;SDS011;7834;49.452;11.056;2024-01-16T12:52:49;10.57;;;5.93;;
15466;SDS011;7834;49.452;11.056;2024-01-16T12:55:16;8.75;;;5.80;;
15466;SDS011;7834;49.452;11.056;2024-01-16T12:57:41;10.88;;;5.18;;
15466;SDS011;7834;49.452;11.056;2024-01-16T13:00:25;10.63;;;5.70;;
15466;SDS011;7834;49.452;11.056;2024-01-16T13:02:53;8.40;;;5.43;;
15466;SDS011;7834;49.452;11.056;2024-01-16T13:05:23;7.70;;;4.97;;
15466;SDS011;7834;49.452;11.056;2024-01-16T13:08:01;8.52;;;4.38;;
15466;SDS011;7834;49.452;11.056;2024-01-16T13:10:28;9.70;;;5.15;;
15466;SDS011;7834;49.452;11.056;2024-01-16T13:13:11;6.82;;;4.68;;
15466;SDS011;7834;49.452;11.056;2024-01-16T13:15:37;8.63;;;4.80;;
15466;SDS011;7834;49.452;11.056;2024-01-16T13:18:03;9.55;;;4.90;;
15466;SDS011;7834;49.452;11.056;2024-01-16T13:20:28;7.83;;;4.60;;
15466;SDS011;7834;49.452;11.056;2024-01-16T13:22:54;8.27;;;4.40;;
15466;SDS011;7834;49.452;11.056;2024-01-16T13:25:19;9.33;;;4.50;;
15466;SDS011;7834;49.452;11.056;2024-01-16T13:27:45;8.63;;;4.78;;
15466;SDS011;7834;49.452;11.056;2024-01-16T13:30:11;7.03;;;4.82;;
15466;SDS011;7834;49.452;11.056;2024-01-16T13:32:37;7.53;;;4.40;;
15466;SDS011;7834;49.452;11.056;2024-01-16T13:35:02;6.93;;;4.70;;
15466;SDS011;7834;49.452;11.056;2024-01-16T13:37:32;8.15;;;4.50;;
15466;SDS011;7834;49.452;11.056;2024-01-16T13:39:58;7.68;;;4.32;;
15466;SDS011;7834;49.452;11.056;2024-01-16T13:42:23;12.43;;;5.20;;
15466;SDS011;7834;49.452;11.056;2024-01-16T13:44:49;13.10;;;7.63;;
15466;SDS011;7834;49.452;11.056;2024-01-16T13:47:15;9.30;;;5.40;;
15466;SDS011;7834;49.452;11.056;2024-01-16T13:49:41;12.90;;;7.72;;
15466;SDS011;7834;49.452;11.056;2024-01-16T13:52:06;9.32;;;5.10;;
15466;SDS011;7834;49.452;11.056;2024-01-16T13:54:32;9.47;;;4.93;;
15466;SDS011;7834;49.452;11.056;2024-01-16T13:56:57;9.17;;;4.90;;
15466;SDS011;7834;49.452;11.056;2024-01-16T13:59:23;9.80;;;4.80;;
15466;SDS011;7834;49.452;11.056;2024-01-16T14:01:49;8.13;;;4.37;;
15466;SDS011;7834;49.452;11.056;2024-01-16T14:04:14;9.60;;;4.40;;
15466;SDS011;7834;49.452;11.056;2024-01-16T14:06:40;8.27;;;4.67;;
15466;SDS011;7834;49.452;11.056;2024-01-16T14:09:05;10.43;;;4.63;;
15466;SDS011;7834;49.452;11.056;2024-01-16T14:11:34;8.48;;;4.50;;
15466;SDS011;7834;49.452;11.056;2024-01-16T14:14:00;9.95;;;4.65;;
15466;SDS011;7834;49.452;11.056;2024-01-16T14:16:28;8.20;;;4.70;;
15466;SDS011;7834;49.452;11.056;2024-01-16T14:18:53;9.65;;;4.80;;
15466;SDS011;7834;49.452;11.056;2024-01-16T14:21:19;8.73;;;4.50;;
15466;SDS011;7834;49.452;11.056;2024-01-16T14:23:44;9.07;;;4.20;;
15466;SDS011;7834;49.452;11.056;2024-01-16T14:26:10;8.57;;;4.07;;
15466;SDS011;7834;49.452;11.056;2024-01-16T14:28:35;8.03;;;4.37;;
15466;SDS011;7834;49.452;11.056;2024-01-16T14:31:01;9.32;;;4.00;;
15466;SDS011;7834;49.452;11.056;2024-01-16T14:33:26;8.33;;;4.80;;
15466;SDS011;7834;49.452;11.056;2024-01-16T14:35:52;7.50;;;3.97;;
15466;SDS011;7834;49.452;11.056;2024-01-16T14:38:17;11.43;;;4.70;;
15466;SDS011;7834;49.452;11.056;2024-01-16T14:40:43;12.32;;;5.07;;
15466;SDS011;7834;49.452;11.056;2024-01-16T14:43:08;8.93;;;5.20;;
15466;SDS011;7834;49.452;11.056;2024-01-16T14:45:34;10.05;;;5.38;;
15466;SDS011;7834;49.452;11.056;2024-01-16T14:48:00;9.55;;;4.80;;